Terminal Aerodrome Forecast
Issued by NWS Houston/Galveston, TX

Home | Current Version | Previous Version | Text Only | Print | Product List | Glossary On
Versions: 1 2 3 4 5 6 7 8 9 10 11 12 13 14 15 16 17 18 19 20 21 22 23 24 25 26 27 28 29 30 31 32 33 34 35 36 37 38
000
FTUS44 KHGX 272320
TAFGLS
TAF
KGLS 272320Z 2800/2824 04015KT P6SM FEW025 BKN035 BKN090
     FM280900 05016G26KT P6SM BKN025 BKN045 OVC070
     FM281600 06015G25KT P6SM SCT025 BKN045 OVC070=

USA.gov is the U.S. government's official web portal to all federal, state and local government web resources and services.